createdAt,value
2019-03-22T00:00:49.267Z,8.63
2019-03-22T00:01:49.170Z,8.61
2019-03-22T00:02:49.083Z,8.71
2019-03-22T00:03:48.995Z,8.67
2019-03-22T00:04:48.869Z,8.63
2019-03-22T00:05:48.771Z,8.68
2019-03-22T00:06:48.672Z,8.50
2019-03-22T00:07:48.865Z,8.47
2019-03-22T00:08:48.476Z,8.36
2019-03-22T00:09:48.391Z,8.22
2019-03-22T00:10:48.282Z,8.09
2019-03-22T00:11:48.183Z,8.17
2019-03-22T00:12:48.098Z,8.24
2019-03-22T00:13:48.113Z,8.09
2019-03-22T00:14:47.886Z,8.10
2019-03-22T00:15:47.789Z,8.22
2019-03-22T00:16:47.693Z,8.22
2019-03-22T00:17:47.611Z,8.34
2019-03-22T00:18:47.493Z,8.47
2019-03-22T00:19:47.397Z,8.24
2019-03-22T00:20:47.297Z,8.12
2019-03-22T00:21:47.201Z,8.13
2019-03-22T00:22:47.131Z,8.13
2019-03-22T00:23:47.003Z,8.07
2019-03-22T00:24:46.908Z,7.96
2019-03-22T00:25:46.808Z,7.95
2019-03-22T00:26:46.707Z,7.82
2019-03-22T00:27:46.618Z,7.69
2019-03-22T00:28:46.530Z,7.47
2019-03-22T00:29:46.418Z,7.34
2019-03-22T00:30:46.316Z,7.16
2019-03-22T00:31:46.221Z,7.18
2019-03-22T00:32:46.120Z,7.23
2019-03-22T00:33:46.037Z,7.45
2019-03-22T00:34:45.929Z,7.42
2019-03-22T00:35:45.825Z,7.29
2019-03-22T00:36:45.724Z,7.34
2019-03-22T00:37:45.629Z,7.36
2019-03-22T00:38:45.545Z,7.37
2019-03-22T00:39:45.431Z,7.60
2019-03-22T00:40:45.333Z,7.74
2019-03-22T00:41:45.234Z,7.88
2019-03-22T00:42:45.135Z,7.91
2019-03-22T00:43:45.054Z,8.03
2019-03-22T00:44:44.940Z,7.67
2019-03-22T00:45:44.840Z,7.57
2019-03-22T00:46:44.743Z,7.74
2019-03-22T00:47:44.645Z,7.58
2019-03-22T00:48:44.562Z,7.84
2019-03-22T00:49:44.452Z,7.81
2019-03-22T00:50:44.347Z,7.76
2019-03-22T00:51:44.251Z,7.67
2019-03-22T00:52:44.174Z,7.54
2019-03-22T00:53:44.071Z,7.71
2019-03-22T00:54:43.954Z,7.81
2019-03-22T00:55:43.856Z,7.85
2019-03-22T00:56:43.758Z,7.77
2019-03-22T00:57:43.658Z,7.76
2019-03-22T00:58:43.581Z,7.67
2019-03-22T00:59:43.475Z,7.48
2019-03-22T01:00:43.366Z,7.51
2019-03-22T01:01:43.265Z,7.36
2019-03-22T01:02:43.166Z,7.50
2019-03-22T01:03:43.084Z,7.55
2019-03-22T01:04:42.971Z,7.84
2019-03-22T01:05:42.870Z,7.99
2019-03-22T01:06:42.771Z,8.09
2019-03-22T01:07:42.674Z,8.29
2019-03-22T01:08:42.592Z,8.28
2019-03-22T01:09:42.478Z,8.32
2019-03-22T01:10:42.379Z,8.22
2019-03-22T01:11:42.279Z,8.25
2019-03-22T01:12:42.200Z,8.37
2019-03-22T01:13:42.098Z,8.22
2019-03-22T01:14:41.983Z,8.20
2019-03-22T01:15:41.886Z,8.02
2019-03-22T01:16:41.785Z,7.99
2019-03-22T01:17:41.814Z,7.88
2019-03-22T01:18:41.606Z,7.45
2019-03-22T01:19:41.493Z,7.36
2019-03-22T01:20:41.396Z,7.33
2019-03-22T01:21:41.297Z,7.33
2019-03-22T01:22:41.196Z,7.15
2019-03-22T01:23:41.114Z,7.11
2019-03-22T01:24:41.002Z,6.90
2019-03-22T01:25:40.901Z,6.75
2019-03-22T01:26:40.808Z,6.60
2019-03-22T01:27:41.516Z,6.38
2019-03-22T01:28:40.609Z,6.05
2019-03-22T01:29:40.522Z,5.84
2019-03-22T01:30:40.411Z,5.51
2019-03-22T01:31:40.313Z,5.24
2019-03-22T01:32:40.219Z,5.22
2019-03-22T01:33:40.116Z,5.17
2019-03-22T01:34:40.037Z,5.40
2019-03-22T01:35:39.915Z,5.42
2019-03-22T01:36:39.818Z,5.66
2019-03-22T01:37:39.731Z,5.96
2019-03-22T01:38:39.619Z,6.14
2019-03-22T01:39:39.539Z,6.38
2019-03-22T01:40:39.420Z,6.46
2019-03-22T01:41:39.325Z,6.55
2019-03-22T01:42:39.223Z,6.51
2019-03-22T01:43:39.126Z,6.55
2019-03-22T01:44:39.067Z,6.60
2019-03-22T01:45:39.039Z,6.58
2019-03-22T01:46:38.828Z,6.64
2019-03-22T01:47:38.732Z,6.71
2019-03-22T01:48:38.628Z,6.76
2019-03-22T01:49:38.546Z,6.89
2019-03-22T01:50:38.430Z,6.87
2019-03-22T01:51:38.337Z,6.93
2019-03-22T01:52:38.337Z,6.94
2019-03-22T01:53:38.134Z,6.89
2019-03-22T01:54:38.055Z,6.82
2019-03-22T01:55:37.937Z,6.60
2019-03-22T01:56:37.843Z,6.54
2019-03-22T01:57:37.738Z,6.36
2019-03-22T01:58:37.641Z,6.01
2019-03-22T01:59:37.664Z,5.83
2019-03-22T02:00:37.441Z,5.70
2019-03-22T02:01:37.346Z,5.66
2019-03-22T02:02:37.246Z,5.58
2019-03-22T02:03:37.146Z,5.41
2019-03-22T02:04:37.063Z,5.45
2019-03-22T02:05:36.948Z,5.44
2019-03-22T02:06:36.975Z,5.60
2019-03-22T02:07:36.752Z,5.80
2019-03-22T02:08:36.649Z,6.32
2019-03-22T02:09:36.576Z,6.60
2019-03-22T02:10:36.454Z,7.08
2019-03-22T02:11:36.354Z,7.15
2019-03-22T02:12:36.254Z,7.34
2019-03-22T02:13:36.256Z,7.45
2019-03-22T02:14:36.057Z,7.66
2019-03-22T02:15:35.975Z,7.69
2019-03-22T02:16:35.860Z,7.55
2019-03-22T02:17:35.758Z,7.37
2019-03-22T02:18:35.664Z,6.90
2019-03-22T02:19:35.573Z,6.55
2019-03-22T02:20:35.586Z,6.08
2019-03-22T02:21:35.364Z,5.74
2019-03-22T02:22:35.264Z,5.62
2019-03-22T02:23:35.165Z,5.37
2019-03-22T02:24:35.072Z,5.14
2019-03-22T02:25:34.982Z,4.96
2019-03-22T02:26:34.874Z,4.71
2019-03-22T02:27:34.874Z,4.69
2019-03-22T02:28:34.672Z,4.54
2019-03-22T02:29:34.574Z,4.49
2019-03-22T02:30:34.493Z,4.47
2019-03-22T02:31:34.377Z,4.51
2019-03-22T02:32:34.271Z,4.57
2019-03-22T02:33:34.174Z,4.67
2019-03-22T02:34:34.181Z,4.68
2019-03-22T02:35:33.993Z,4.65
2019-03-22T02:36:33.875Z,4.65
2019-03-22T02:37:33.779Z,4.71
2019-03-22T02:38:33.677Z,4.61
2019-03-22T02:39:33.670Z,4.65
2019-03-22T02:40:33.500Z,4.59
2019-03-22T02:41:33.489Z,4.54
2019-03-22T02:42:33.281Z,4.56
2019-03-22T02:43:33.200Z,4.65
2019-03-22T02:44:33.096Z,4.69
2019-03-22T02:45:33.001Z,4.62
2019-03-22T02:46:32.883Z,4.71
2019-03-22T02:47:32.782Z,4.72
2019-03-22T02:48:32.789Z,4.69
2019-03-22T02:49:32.669Z,4.71
2019-03-22T02:50:32.504Z,4.62
2019-03-22T02:51:32.388Z,4.68
2019-03-22T02:52:32.285Z,4.61
2019-03-22T02:53:32.183Z,4.62
2019-03-22T02:54:32.089Z,4.56
2019-03-22T02:55:32.004Z,4.67
2019-03-22T02:56:31.886Z,4.57
2019-03-22T02:57:31.795Z,4.49
2019-03-22T02:58:31.700Z,4.56
2019-03-22T02:59:31.586Z,4.57
2019-03-22T03:00:31.506Z,4.51
2019-03-22T03:01:31.387Z,4.50
2019-03-22T03:02:31.290Z,4.51
2019-03-22T03:03:31.191Z,4.54
2019-03-22T03:04:31.108Z,4.56
2019-03-22T03:05:31.004Z,4.57
2019-03-22T03:06:30.889Z,4.57
2019-03-22T03:07:30.790Z,4.46
2019-03-22T03:08:30.695Z,4.56
2019-03-22T03:09:30.591Z,4.44
2019-03-22T03:10:30.513Z,4.50
2019-03-22T03:11:30.394Z,4.44
2019-03-22T03:12:30.290Z,4.54
2019-03-22T03:13:30.192Z,4.53
2019-03-22T03:14:30.092Z,4.53
2019-03-22T03:15:30.007Z,4.46
2019-03-22T03:16:29.905Z,4.54
2019-03-22T03:17:29.791Z,4.51
2019-03-22T03:18:29.696Z,4.61
2019-03-22T03:19:29.617Z,4.57
2019-03-22T03:20:29.512Z,4.61
2019-03-22T03:21:29.398Z,4.68
2019-03-22T03:22:29.304Z,4.69
2019-03-22T03:23:29.196Z,4.80
2019-03-22T03:24:29.101Z,4.88
2019-03-22T03:25:28.997Z,4.96
2019-03-22T03:26:28.914Z,4.97
2019-03-22T03:27:28.800Z,5.11
2019-03-22T03:28:36.455Z,5.30
2019-03-22T03:29:28.598Z,5.30
2019-03-22T03:30:28.519Z,5.47
2019-03-22T03:31:28.399Z,5.60
2019-03-22T03:32:28.335Z,5.56
2019-03-22T03:33:28.226Z,5.75
2019-03-22T03:34:28.101Z,5.80
2019-03-22T03:35:28.004Z,5.81
2019-03-22T03:36:27.921Z,5.78
2019-03-22T03:37:27.803Z,5.69
2019-03-22T03:38:27.727Z,5.85
2019-03-22T03:39:27.601Z,5.75
2019-03-22T03:40:27.505Z,5.78
2019-03-22T03:41:27.417Z,5.70
2019-03-22T03:42:27.301Z,5.75
2019-03-22T03:43:27.203Z,5.65
2019-03-22T03:44:27.103Z,5.62
2019-03-22T03:45:27.005Z,5.60
2019-03-22T03:46:26.926Z,5.62
2019-03-22T03:47:26.806Z,5.66
2019-03-22T03:48:26.702Z,5.65
2019-03-22T03:49:26.602Z,5.60
2019-03-22T03:50:26.527Z,5.59
2019-03-22T03:51:26.462Z,5.55
2019-03-22T03:52:26.309Z,5.44
2019-03-22T03:53:26.205Z,5.20
2019-03-22T03:54:26.167Z,5.17
2019-03-22T03:55:26.007Z,5.06
2019-03-22T03:56:25.934Z,5.01
2019-03-22T03:57:25.810Z,4.93
2019-03-22T03:58:25.710Z,4.84
2019-03-22T03:59:25.636Z,4.90
2019-03-22T04:00:25.509Z,4.93
2019-03-22T04:01:25.431Z,4.88
2019-03-22T04:02:25.310Z,4.97
2019-03-22T04:03:25.211Z,5.09
2019-03-22T04:04:25.111Z,4.88
2019-03-22T04:05:25.017Z,4.99
2019-03-22T04:06:24.934Z,4.93
2019-03-22T04:07:24.815Z,4.87
2019-03-22T04:08:24.721Z,4.86
2019-03-22T04:09:24.627Z,4.80
2019-03-22T04:10:24.517Z,4.86
2019-03-22T04:11:24.429Z,4.93
2019-03-22T04:12:24.316Z,4.94
2019-03-22T04:13:24.214Z,5.12
2019-03-22T04:14:24.113Z,5.20
2019-03-22T04:15:24.015Z,5.37
2019-03-22T04:16:23.931Z,5.65
2019-03-22T04:17:23.813Z,5.69
2019-03-22T04:18:23.827Z,5.75
2019-03-22T04:19:23.619Z,5.56
2019-03-22T04:20:23.518Z,5.51
2019-03-22T04:21:23.437Z,5.58
2019-03-22T04:22:23.327Z,5.56
2019-03-22T04:23:23.222Z,5.49
2019-03-22T04:24:23.117Z,5.44
2019-03-22T04:25:23.028Z,5.62
2019-03-22T04:26:22.933Z,6.25
2019-03-22T04:27:22.824Z,6.65
2019-03-22T04:28:22.719Z,6.75
2019-03-22T04:29:22.621Z,6.91
2019-03-22T04:30:22.523Z,6.93
2019-03-22T04:31:22.437Z,7.12
2019-03-22T04:32:22.424Z,7.51
2019-03-22T04:33:22.221Z,7.48
2019-03-22T04:34:22.122Z,7.50
2019-03-22T04:35:22.026Z,7.30
2019-03-22T04:36:21.939Z,7.12
2019-03-22T04:37:21.822Z,6.91
2019-03-22T04:38:21.725Z,6.96
2019-03-22T04:39:21.749Z,6.97
2019-03-22T04:40:21.524Z,6.91
2019-03-22T04:41:21.457Z,6.75
2019-03-22T04:42:21.325Z,6.71
2019-03-22T04:43:21.227Z,6.64
2019-03-22T04:44:21.133Z,6.73
2019-03-22T04:45:21.034Z,7.14
2019-03-22T04:46:21.053Z,7.26
2019-03-22T04:47:20.829Z,7.18
2019-03-22T04:48:20.728Z,7.36
2019-03-22T04:49:20.647Z,7.29
2019-03-22T04:50:20.531Z,7.39
2019-03-22T04:51:20.436Z,7.47
2019-03-22T04:52:20.354Z,7.67
2019-03-22T04:53:21.912Z,7.52
2019-03-22T04:54:20.134Z,7.44
2019-03-22T04:55:20.037Z,7.34
2019-03-22T04:56:19.956Z,7.18
2019-03-22T04:57:19.840Z,7.18
2019-03-22T04:58:19.738Z,7.44
2019-03-22T04:59:19.777Z,7.54
2019-03-22T05:00:19.645Z,7.39
2019-03-22T05:01:19.442Z,7.29
2019-03-22T05:02:19.361Z,6.99
2019-03-22T05:03:19.246Z,7.18
2019-03-22T05:04:19.143Z,7.11
2019-03-22T05:05:19.047Z,7.19
2019-03-22T05:06:18.953Z,7.41
2019-03-22T05:07:18.972Z,7.30
2019-03-22T05:08:18.750Z,7.21
2019-03-22T05:09:18.648Z,7.23
2019-03-22T05:10:18.551Z,7.42
2019-03-22T05:11:18.454Z,7.19
2019-03-22T05:12:18.367Z,7.15
2019-03-22T05:13:18.254Z,6.97
2019-03-22T05:14:18.259Z,6.99
2019-03-22T05:15:18.057Z,6.76
2019-03-22T05:16:17.960Z,6.78
2019-03-22T05:17:17.875Z,6.78
2019-03-22T05:18:17.759Z,6.63
2019-03-22T05:19:17.659Z,6.68
2019-03-22T05:20:17.562Z,6.64
2019-03-22T05:21:17.579Z,6.69
2019-03-22T05:22:17.384Z,6.55
2019-03-22T05:23:17.264Z,6.60
2019-03-22T05:24:18.330Z,6.65
2019-03-22T05:25:17.068Z,6.75
2019-03-22T05:26:16.969Z,6.68
2019-03-22T05:27:16.882Z,6.71
2019-03-22T05:28:16.877Z,6.71
2019-03-22T05:29:16.673Z,6.73
2019-03-22T05:30:16.573Z,6.75
2019-03-22T05:31:16.476Z,6.72
2019-03-22T05:32:16.395Z,6.97
2019-03-22T05:33:16.272Z,6.97
2019-03-22T05:34:16.175Z,6.94
2019-03-22T05:35:16.184Z,6.76
2019-03-22T05:36:15.977Z,6.64
2019-03-22T05:37:15.897Z,6.48
2019-03-22T05:38:15.781Z,6.27
2019-03-22T05:39:15.680Z,6.17
2019-03-22T05:40:15.581Z,5.99
2019-03-22T05:41:15.484Z,5.99
2019-03-22T05:42:15.386Z,6.01
2019-03-22T05:43:15.303Z,6.02
2019-03-22T05:44:15.187Z,6.03
2019-03-22T05:45:15.091Z,6.01
2019-03-22T05:46:15.004Z,6.05
2019-03-22T05:47:14.910Z,6.02
2019-03-22T05:48:14.794Z,6.16
2019-03-22T05:49:14.695Z,6.08
2019-03-22T05:50:14.599Z,6.19
2019-03-22T05:51:14.499Z,6.28
2019-03-22T05:52:14.404Z,6.25
2019-03-22T05:53:14.315Z,6.30
2019-03-22T05:54:14.201Z,6.48
2019-03-22T05:55:14.103Z,6.48
2019-03-22T05:56:14.002Z,6.57
2019-03-22T05:57:14.128Z,6.53
2019-03-22T05:58:13.824Z,6.55
2019-03-22T05:59:13.708Z,6.65
2019-03-22T06:00:13.607Z,6.73
2019-03-22T06:01:13.512Z,6.76
2019-03-22T06:02:13.415Z,6.96
2019-03-22T06:03:13.331Z,6.91
2019-03-22T06:04:13.213Z,7.09
2019-03-22T06:05:13.134Z,7.16
2019-03-22T06:06:13.021Z,7.26
2019-03-22T06:07:12.921Z,7.48
2019-03-22T06:08:12.838Z,7.50
2019-03-22T06:09:12.724Z,7.60
2019-03-22T06:10:12.625Z,7.70
2019-03-22T06:11:12.529Z,7.73
2019-03-22T06:12:12.431Z,7.85
2019-03-22T06:13:12.346Z,7.85
2019-03-22T06:14:12.234Z,7.86
2019-03-22T06:15:12.137Z,7.99
2019-03-22T06:16:12.036Z,7.91
2019-03-22T06:17:11.937Z,8.03
2019-03-22T06:18:11.859Z,7.99
2019-03-22T06:19:11.742Z,8.03
2019-03-22T06:20:11.644Z,8.10
2019-03-22T06:21:11.547Z,8.17
2019-03-22T06:22:11.451Z,8.28
2019-03-22T06:23:11.369Z,8.34
2019-03-22T06:24:11.328Z,8.43
2019-03-22T06:25:11.175Z,8.49
2019-03-22T06:26:11.062Z,8.47
2019-03-22T06:27:10.964Z,8.49
2019-03-22T06:28:10.880Z,8.49
2019-03-22T06:29:10.874Z,8.61
2019-03-22T06:30:10.669Z,8.57
2019-03-22T06:31:10.573Z,8.68
2019-03-22T06:32:10.475Z,8.64
2019-03-22T06:33:10.392Z,8.58
2019-03-22T06:34:10.279Z,8.64
2019-03-22T06:35:10.184Z,8.65
2019-03-22T06:36:10.085Z,8.71
2019-03-22T06:37:09.989Z,8.91
2019-03-22T06:38:09.910Z,8.94
2019-03-22T06:39:09.795Z,9.15
2019-03-22T06:40:09.699Z,9.17
2019-03-22T06:41:09.604Z,9.20
2019-03-22T06:42:09.509Z,9.20
2019-03-22T06:43:09.425Z,9.15
2019-03-22T06:44:09.314Z,9.20
2019-03-22T06:45:09.218Z,9.27
2019-03-22T06:46:09.123Z,9.26
2019-03-22T06:47:11.058Z,9.45
2019-03-22T06:48:08.944Z,9.45
2019-03-22T06:49:08.831Z,9.52
2019-03-22T06:50:08.749Z,9.59
2019-03-22T06:51:08.638Z,9.59
2019-03-22T06:52:08.645Z,9.74
2019-03-22T06:53:08.465Z,9.88
2019-03-22T06:54:08.351Z,9.99
2019-03-22T06:55:08.254Z,10.09
2019-03-22T06:56:08.158Z,10.20
2019-03-22T06:57:08.068Z,10.22
2019-03-22T06:58:07.992Z,10.42
2019-03-22T06:59:07.978Z,10.44
2019-03-22T07:00:07.788Z,10.54
2019-03-22T07:01:07.683Z,10.47
2019-03-22T07:02:07.588Z,10.52
2019-03-22T07:03:07.509Z,10.42
2019-03-22T07:04:07.398Z,10.24
2019-03-22T07:05:07.302Z,10.31
2019-03-22T07:06:07.324Z,10.38
2019-03-22T07:07:07.113Z,10.26
2019-03-22T07:08:07.038Z,10.31
2019-03-22T07:09:06.927Z,10.46
2019-03-22T07:10:06.832Z,10.49
2019-03-22T07:11:06.739Z,10.51
2019-03-22T07:12:06.645Z,10.55
2019-03-22T07:13:06.670Z,10.62
2019-03-22T07:14:06.455Z,10.73
2019-03-22T07:15:06.364Z,10.73
2019-03-22T07:16:06.264Z,10.94
2019-03-22T07:17:06.172Z,11.01
2019-03-22T07:18:06.095Z,11.13
2019-03-22T07:19:05.984Z,11.23
2019-03-22T07:20:05.992Z,11.41
2019-03-22T07:21:05.798Z,11.46
2019-03-22T07:22:05.703Z,11.42
2019-03-22T07:23:05.628Z,11.63
2019-03-22T07:24:05.513Z,11.93
2019-03-22T07:25:05.421Z,11.96
2019-03-22T07:26:05.330Z,12.29
2019-03-22T07:27:05.340Z,12.23
2019-03-22T07:28:05.147Z,12.49
2019-03-22T07:29:05.070Z,12.76
2019-03-22T07:30:04.958Z,12.89
2019-03-22T07:31:04.865Z,13.09
2019-03-22T07:32:04.776Z,13.55
2019-03-22T07:33:04.683Z,13.80
2019-03-22T07:34:04.710Z,13.88
2019-03-22T07:35:04.496Z,14.17
2019-03-22T07:36:04.398Z,14.46
2019-03-22T07:37:04.312Z,14.82
2019-03-22T07:38:04.221Z,14.90
2019-03-22T07:39:04.148Z,14.87
2019-03-22T07:40:04.141Z,14.91
2019-03-22T07:41:03.941Z,14.79
2019-03-22T07:42:03.851Z,14.93
2019-03-22T07:43:03.760Z,14.91
2019-03-22T07:44:03.686Z,14.90
2019-03-22T07:45:03.601Z,15.13
2019-03-22T07:46:03.487Z,14.93
2019-03-22T07:47:03.396Z,14.90
2019-03-22T07:48:03.307Z,14.49
2019-03-22T07:49:03.235Z,14.54
2019-03-22T07:50:03.131Z,14.53
2019-03-22T07:51:03.036Z,14.75
2019-03-22T07:52:02.947Z,15.13
2019-03-22T07:53:02.858Z,15.07
2019-03-22T07:54:03.837Z,15.19
2019-03-22T07:55:02.679Z,15.18
2019-03-22T07:56:02.588Z,15.41
2019-03-22T07:57:02.498Z,15.05
2019-03-22T07:58:02.413Z,15.20
2019-03-22T07:59:02.355Z,14.82
2019-03-22T08:00:02.227Z,14.91
2019-03-22T08:01:02.181Z,15.25
2019-03-22T08:02:02.058Z,15.41
2019-03-22T08:03:01.959Z,15.41
2019-03-22T08:04:01.889Z,15.64
2019-03-22T08:05:01.794Z,16.04
2019-03-22T08:06:01.694Z,16.47
2019-03-22T08:07:01.609Z,16.70
2019-03-22T08:08:01.517Z,16.92
2019-03-22T08:09:01.443Z,17.02
2019-03-22T08:10:01.386Z,16.81
2019-03-22T08:11:01.252Z,16.84
2019-03-22T08:12:01.198Z,16.48
2019-03-22T08:13:01.073Z,15.95
2019-03-22T08:14:01.005Z,16.01
2019-03-22T08:15:00.902Z,16.41
2019-03-22T08:16:00.812Z,16.41
2019-03-22T08:17:00.720Z,16.36
2019-03-22T08:18:00.640Z,16.27
2019-03-22T08:19:00.565Z,15.92
2019-03-22T08:20:00.487Z,15.85
2019-03-22T08:21:00.374Z,15.60
2019-03-22T08:22:00.331Z,15.71
2019-03-22T08:23:00.196Z,15.89
2019-03-22T08:24:00.124Z,15.68
2019-03-22T08:25:00.022Z,16.14
2019-03-22T08:25:59.936Z,16.10
2019-03-22T08:26:59.848Z,16.50
2019-03-22T08:27:59.794Z,16.95
2019-03-22T08:28:59.818Z,16.57
2019-03-22T08:29:59.602Z,16.26
2019-03-22T08:30:59.495Z,15.95
2019-03-22T08:31:59.445Z,15.93
2019-03-22T08:32:59.356Z,15.86
2019-03-22T08:33:59.232Z,15.89
2019-03-22T08:34:59.179Z,15.81
2019-03-22T08:35:59.171Z,15.77
2019-03-22T08:36:58.981Z,16.06
2019-03-22T08:37:58.885Z,16.22
2019-03-22T08:38:58.799Z,16.14
2019-03-22T08:39:58.724Z,15.93
2019-03-22T08:40:58.642Z,16.54
2019-03-22T08:41:58.558Z,16.34
2019-03-22T08:42:58.549Z,16.01
2019-03-22T08:43:58.359Z,16.22
2019-03-22T08:44:58.287Z,16.52
2019-03-22T08:45:58.184Z,16.23
2019-03-22T08:46:58.109Z,16.08
2019-03-22T08:47:58.027Z,15.92
2019-03-22T08:48:57.995Z,16.23
2019-03-22T08:49:57.987Z,15.86
2019-03-22T08:50:57.754Z,15.64
2019-03-22T08:51:57.679Z,16.01
2019-03-22T08:52:57.572Z,16.13
2019-03-22T08:53:57.485Z,16.33
2019-03-22T08:54:57.439Z,16.67
2019-03-22T08:55:57.333Z,16.85
2019-03-22T08:56:57.328Z,17.25
2019-03-22T08:57:57.175Z,17.63
2019-03-22T08:58:57.087Z,17.86
2019-03-22T08:59:56.996Z,17.63
2019-03-22T09:00:58.119Z,17.76
2019-03-22T09:01:56.789Z,18.53
2019-03-22T09:02:56.726Z,18.79
2019-03-22T09:03:56.761Z,18.51
2019-03-22T09:04:56.586Z,19.01
2019-03-22T09:05:56.439Z,18.93
2019-03-22T09:06:58.931Z,18.66
2019-03-22T09:07:56.286Z,18.65
2019-03-22T09:08:56.200Z,19.15
2019-03-22T09:09:56.116Z,18.84
2019-03-22T09:10:56.150Z,18.64
2019-03-22T09:11:55.930Z,18.42
2019-03-22T09:12:55.855Z,18.32
2019-03-22T09:13:55.746Z,18.46
2019-03-22T09:14:55.692Z,18.42
2019-03-22T09:15:55.593Z,18.19
2019-03-22T09:16:55.490Z,18.54
2019-03-22T09:17:55.509Z,19.23
2019-03-22T09:18:55.332Z,18.86
2019-03-22T09:19:55.250Z,18.44
2019-03-22T09:20:55.148Z,18.28
2019-03-22T09:21:55.061Z,18.19
2019-03-22T09:22:54.974Z,17.91
2019-03-22T09:23:54.893Z,17.81
2019-03-22T09:24:54.940Z,18.23
2019-03-22T09:25:54.754Z,18.56
2019-03-22T09:26:54.641Z,18.82
2019-03-22T09:27:54.544Z,18.97
2019-03-22T09:28:54.461Z,18.44
2019-03-22T09:29:54.379Z,17.94
2019-03-22T09:30:54.357Z,18.29
2019-03-22T09:31:54.321Z,18.74
2019-03-22T09:32:54.118Z,19.12
2019-03-22T09:33:54.033Z,18.54
2019-03-22T09:34:53.949Z,18.11
2019-03-22T09:35:53.881Z,17.55
2019-03-22T09:36:53.818Z,17.74
2019-03-22T09:37:53.694Z,17.89
2019-03-22T09:38:53.715Z,17.73
2019-03-22T09:39:53.582Z,17.87
2019-03-22T09:40:53.465Z,18.04
2019-03-22T09:41:53.433Z,18.17
2019-03-22T09:42:53.395Z,18.10
2019-03-22T09:43:53.236Z,18.26
2019-03-22T09:44:53.130Z,18.14
2019-03-22T09:45:53.148Z,18.10
2019-03-22T09:46:52.950Z,18.19
2019-03-22T09:47:52.841Z,18.54
2019-03-22T09:48:52.769Z,18.57
2019-03-22T09:49:52.689Z,18.38
2019-03-22T09:50:52.598Z,18.44
2019-03-22T09:51:55.077Z,18.26
2019-03-22T09:52:52.433Z,18.29
2019-03-22T09:53:52.323Z,18.36
2019-03-22T09:54:52.373Z,18.94
2019-03-22T09:55:52.280Z,19.60
2019-03-22T09:56:52.084Z,19.95
2019-03-22T09:57:51.981Z,19.72
2019-03-22T09:58:51.902Z,19.61
2019-03-22T09:59:52.014Z,19.47
2019-03-22T10:00:51.779Z,19.55
2019-03-22T10:01:51.685Z,19.40
2019-03-22T10:02:51.575Z,19.05
2019-03-22T10:03:51.474Z,18.49
2019-03-22T10:04:51.389Z,18.59
2019-03-22T10:05:51.360Z,18.62
2019-03-22T10:06:51.219Z,18.86
2019-03-22T10:07:51.140Z,19.28
2019-03-22T10:08:51.069Z,19.32
2019-03-22T10:09:50.967Z,19.75
2019-03-22T10:10:50.891Z,19.94
2019-03-22T10:11:50.795Z,19.90
2019-03-22T10:12:50.708Z,19.70
2019-03-22T10:13:50.623Z,19.70
2019-03-22T10:14:50.558Z,19.95
2019-03-22T10:15:50.473Z,19.76
2019-03-22T10:16:50.373Z,19.38
2019-03-22T10:17:50.283Z,19.20
2019-03-22T10:18:50.269Z,19.49
2019-03-22T10:19:50.116Z,19.85
2019-03-22T10:20:50.075Z,19.95
2019-03-22T10:21:49.952Z,19.43
2019-03-22T10:22:49.863Z,18.82
2019-03-22T10:23:49.787Z,18.72
2019-03-22T10:24:49.712Z,18.68
2019-03-22T10:25:49.625Z,18.91
2019-03-22T10:26:49.547Z,19.02
2019-03-22T10:27:49.466Z,19.64
2019-03-22T10:28:49.382Z,19.57
2019-03-22T10:29:49.275Z,19.76
2019-03-22T10:30:49.227Z,19.83
2019-03-22T10:31:49.106Z,20.12
2019-03-22T10:32:49.081Z,20.34
2019-03-22T10:33:48.934Z,19.83
2019-03-22T10:34:48.879Z,19.47
2019-03-22T10:35:48.776Z,19.45
2019-03-22T10:36:48.688Z,19.80
2019-03-22T10:37:48.592Z,19.35
2019-03-22T10:38:50.394Z,19.58
2019-03-22T10:39:48.429Z,20.38
2019-03-22T10:40:48.359Z,20.71
2019-03-22T10:41:48.271Z,20.91
2019-03-22T10:42:48.171Z,20.72
2019-03-22T10:43:48.086Z,20.17
2019-03-22T10:44:48.006Z,20.22
2019-03-22T10:45:47.950Z,20.38
2019-03-22T10:46:47.869Z,19.75
2019-03-22T10:47:47.764Z,20.15
2019-03-22T10:48:47.692Z,20.51
2019-03-22T10:49:47.660Z,20.54
2019-03-22T10:50:47.506Z,21.05
2019-03-22T10:51:56.714Z,20.88
2019-03-22T10:52:48.405Z,20.48
2019-03-22T10:53:47.303Z,20.50
2019-03-22T10:54:47.193Z,20.57
2019-03-22T10:55:47.078Z,20.82
2019-03-22T10:56:47.004Z,20.69
2019-03-22T10:57:46.906Z,20.69
2019-03-22T10:58:46.829Z,20.51
2019-03-22T10:59:46.739Z,20.05
2019-03-22T11:00:46.660Z,20.25
2019-03-22T11:01:57.683Z,20.56
2019-03-22T11:02:46.494Z,20.41
2019-03-22T11:03:46.473Z,20.58
2019-03-22T11:04:46.324Z,20.79
2019-03-22T11:05:46.240Z,19.97
2019-03-22T11:06:46.171Z,20.23
2019-03-22T11:07:46.072Z,20.51
2019-03-22T11:08:46.089Z,20.66
2019-03-22T11:09:45.907Z,21.11
2019-03-22T11:10:45.822Z,21.52
2019-03-22T11:11:45.754Z,21.67
2019-03-22T11:12:45.656Z,21.98
2019-03-22T11:13:45.569Z,21.70
2019-03-22T11:14:45.834Z,21.38
2019-03-22T11:15:48.796Z,20.83
2019-03-22T11:16:45.337Z,20.75
2019-03-22T11:17:45.236Z,20.16
2019-03-22T11:18:45.154Z,20.27
2019-03-22T11:19:45.072Z,20.83
2019-03-22T11:20:45.873Z,20.83
2019-03-22T11:21:44.925Z,21.08
2019-03-22T11:22:44.929Z,21.31
2019-03-22T11:23:44.738Z,20.97
2019-03-22T11:24:44.656Z,20.87
2019-03-22T11:25:44.578Z,20.63
2019-03-22T11:26:44.505Z,20.71
2019-03-22T11:27:44.406Z,20.51
2019-03-22T11:28:44.320Z,20.90
2019-03-22T11:29:44.343Z,21.30
2019-03-22T11:30:44.154Z,20.73
2019-03-22T11:31:44.086Z,21.18
2019-03-22T11:32:43.986Z,20.79
2019-03-22T11:33:43.907Z,19.71
2019-03-22T11:34:43.820Z,19.94
2019-03-22T11:35:43.755Z,20.04
2019-03-22T11:36:43.781Z,20.48
2019-03-22T11:37:43.583Z,20.54
2019-03-22T11:38:43.487Z,20.44
2019-03-22T11:39:43.402Z,20.51
2019-03-22T11:40:43.320Z,20.41
2019-03-22T11:41:43.253Z,20.87
2019-03-22T11:42:43.153Z,20.93
2019-03-22T11:43:43.173Z,20.53
2019-03-22T11:44:42.989Z,20.40
2019-03-22T11:45:42.904Z,20.27
2019-03-22T11:46:42.838Z,20.75
2019-03-22T11:47:42.735Z,21.01
2019-03-22T11:48:42.657Z,20.90
2019-03-22T11:49:42.571Z,21.33
2019-03-22T11:50:42.586Z,21.09
2019-03-22T11:51:42.419Z,21.15
2019-03-22T11:52:42.318Z,20.78
2019-03-22T11:53:42.235Z,20.41
2019-03-22T11:54:42.153Z,20.38
2019-03-22T11:55:42.067Z,20.72
2019-03-22T11:56:42.001Z,20.04
2019-03-22T11:57:41.905Z,20.10
2019-03-22T11:58:41.845Z,20.91
2019-03-22T11:59:41.733Z,20.96
2019-03-22T12:00:41.653Z,21.36
2019-03-22T12:01:41.582Z,20.87
2019-03-22T12:02:41.483Z,21.52
2019-03-22T12:03:41.403Z,21.99
2019-03-22T12:04:41.316Z,21.31
2019-03-22T12:05:41.233Z,21.90
2019-03-22T12:06:41.167Z,22.11
2019-03-22T12:07:41.065Z,21.99
2019-03-22T12:08:40.981Z,21.48
2019-03-22T12:09:40.899Z,20.93
2019-03-22T12:10:40.818Z,20.54
2019-03-22T12:11:42.161Z,20.40
2019-03-22T12:12:40.648Z,20.50
2019-03-22T12:13:40.869Z,20.82
2019-03-22T12:14:40.485Z,20.23
2019-03-22T12:15:40.398Z,19.82
2019-03-22T12:16:40.331Z,19.90
2019-03-22T12:17:40.234Z,20.16
2019-03-22T12:18:40.147Z,20.46
2019-03-22T12:19:40.180Z,20.50
2019-03-22T12:20:39.979Z,20.41
2019-03-22T12:21:39.916Z,20.23
2019-03-22T12:22:39.813Z,20.23
2019-03-22T12:23:39.727Z,20.38
2019-03-22T12:24:39.648Z,20.25
2019-03-22T12:25:39.560Z,20.04
2019-03-22T12:26:39.500Z,20.07
2019-03-22T12:27:39.390Z,20.51
2019-03-22T12:28:39.314Z,20.58
2019-03-22T12:29:39.225Z,19.97
2019-03-22T12:30:39.145Z,20.25
2019-03-22T12:31:39.060Z,20.60
2019-03-22T12:32:38.988Z,20.68
2019-03-22T12:33:38.889Z,20.53
2019-03-22T12:34:38.808Z,20.15
2019-03-22T12:35:38.719Z,20.10
2019-03-22T12:36:38.637Z,20.17
2019-03-22T12:37:38.567Z,20.41
2019-03-22T12:38:38.471Z,20.51
2019-03-22T12:39:38.381Z,20.88
2019-03-22T12:40:38.298Z,20.73
2019-03-22T12:41:38.215Z,21.01
2019-03-22T12:42:38.143Z,20.60
2019-03-22T12:43:38.042Z,20.76
2019-03-22T12:44:37.959Z,20.54
2019-03-22T12:45:37.874Z,20.57
2019-03-22T12:46:37.792Z,21.09
2019-03-22T12:47:37.724Z,21.01
2019-03-22T12:48:37.621Z,20.94
2019-03-22T12:49:37.536Z,20.72
2019-03-22T12:50:37.453Z,20.81
2019-03-22T12:51:37.367Z,20.90
2019-03-22T12:52:37.299Z,20.75
2019-03-22T12:53:37.199Z,20.57
2019-03-22T12:54:37.117Z,20.27
2019-03-22T12:55:37.029Z,20.22
2019-03-22T12:56:36.953Z,19.90
2019-03-22T12:57:36.882Z,19.57
2019-03-22T12:58:36.777Z,19.45
2019-03-22T12:59:36.692Z,19.12
2019-03-22T13:00:36.607Z,18.82
2019-03-22T13:01:36.531Z,18.74
2019-03-22T13:02:42.278Z,18.64
2019-03-22T13:03:36.355Z,18.50
2019-03-22T13:04:36.271Z,18.51
2019-03-22T13:05:36.189Z,18.39